createdAt,value
2023-10-29T19:00:25.339Z,-66
2023-10-29T19:01:25.302Z,-66
2023-10-29T19:02:25.263Z,-66
2023-10-29T19:03:25.307Z,-66
2023-10-29T19:16:50.239Z,-66
2023-10-29T19:17:50.076Z,-66
2023-10-29T19:18:52.358Z,-66
2023-10-29T19:19:53.216Z,-66
2023-10-29T19:20:49.997Z,-66
2023-10-29T19:22:12.855Z,-66
2023-10-29T19:23:12.810Z,-66
2023-10-29T19:24:12.906Z,-66
2023-10-29T19:25:13.011Z,-66
2023-10-29T19:26:12.780Z,-66
2023-10-29T19:27:12.799Z,-66
2023-10-29T19:28:12.817Z,-66
2023-10-29T19:29:12.760Z,-66
2023-10-29T19:30:12.801Z,-66
2023-10-29T19:31:22.737Z,-66
2023-10-29T19:32:13.650Z,-66
2023-10-29T19:33:13.666Z,-66
2023-10-29T19:34:13.682Z,-66
2023-10-29T19:35:13.676Z,-66
2023-10-29T19:36:13.732Z,-66
2023-10-29T19:37:13.691Z,-66
2023-10-29T19:38:13.730Z,-66
2023-10-29T19:39:15.039Z,-70
2023-10-29T19:40:15.037Z,-68
2023-10-29T19:41:15.025Z,-66
2023-10-29T19:42:15.082Z,-67
2023-10-29T19:43:07.600Z,-67
2023-10-29T19:44:07.580Z,-65
2023-10-29T19:45:07.744Z,-68
2023-10-29T19:46:07.608Z,-60
2023-10-29T19:47:07.568Z,-60
2023-10-29T19:48:07.692Z,-59
2023-10-29T19:49:07.577Z,-60
2023-10-29T19:50:53.257Z,-61
2023-10-29T19:51:53.272Z,-59
2023-10-29T19:52:53.257Z,-58
2023-10-29T19:53:59.258Z,-60
2023-10-29T19:54:59.211Z,-60
2023-10-29T19:55:59.230Z,-61
2023-10-29T19:56:59.850Z,-60
2023-10-29T19:57:59.250Z,-61
2023-10-29T19:58:59.214Z,-59
2023-10-29T19:59:59.242Z,-60
2023-10-29T20:00:50.492Z,-61
2023-10-29T20:01:50.614Z,-59
2023-10-29T20:02:50.608Z,-59
2023-10-29T20:03:50.569Z,-59
2023-10-29T20:04:50.487Z,-59
2023-10-29T20:05:50.502Z,-58
2023-10-29T20:06:34.617Z,-59
2023-10-29T20:07:34.576Z,-60
2023-10-29T20:08:34.584Z,-60
2023-10-29T20:09:34.653Z,-60
2023-10-29T20:10:34.546Z,-60
2023-10-29T20:11:34.564Z,-60
2023-10-29T20:12:34.596Z,-63
2023-10-29T20:13:34.586Z,-63
2023-10-29T20:14:34.553Z,-62
2023-10-29T20:15:35.444Z,-63
2023-10-29T20:16:34.573Z,-63
2023-10-29T20:17:34.672Z,-63
2023-10-29T20:18:34.552Z,-62
2023-10-29T20:19:35.765Z,-66
2023-10-29T20:20:35.777Z,-65
2023-10-29T20:38:34.176Z,-64
2023-10-29T20:39:35.208Z,-69
2023-10-29T20:40:34.606Z,-68
2023-10-29T20:41:34.600Z,-67
2023-10-29T20:42:34.596Z,-66
2023-10-29T20:43:34.588Z,-66
2023-10-29T20:44:34.589Z,-67
2023-10-29T20:45:34.632Z,-67
2023-10-29T20:46:34.652Z,-67
2023-10-29T20:47:34.602Z,-66
2023-10-29T20:48:34.605Z,-68
2023-10-29T20:49:34.572Z,-68
2023-10-29T20:50:34.609Z,-68
2023-10-29T20:51:34.622Z,-67
2023-10-29T20:52:34.583Z,-68
2023-10-29T20:53:34.656Z,-68
2023-10-29T20:54:34.631Z,-67
2023-10-29T20:55:34.615Z,-67
2023-10-29T20:56:34.603Z,-69
2023-10-29T20:57:34.605Z,-68
2023-10-29T20:58:34.575Z,-67
2023-10-29T20:59:34.611Z,-67
2023-10-29T21:00:34.641Z,-68
2023-10-29T21:01:34.592Z,-67
2023-10-29T21:02:34.662Z,-67
2023-10-29T21:03:34.838Z,-68
2023-10-29T21:04:34.647Z,-68
2023-10-29T21:05:34.675Z,-68
2023-10-29T21:06:34.799Z,-67
2023-10-29T21:07:34.595Z,-65
2023-10-29T21:08:34.578Z,-65
2023-10-29T21:09:34.640Z,-65
2023-10-29T21:10:34.592Z,-65
2023-10-29T21:12:23.729Z,-68
2023-10-29T21:13:23.773Z,-70
2023-10-29T21:14:23.768Z,-68
2023-10-29T21:15:24.933Z,-68
2023-10-29T21:16:25.229Z,-67
2023-10-29T21:17:25.272Z,-68
2023-10-29T21:18:26.772Z,-69
2023-10-29T21:19:30.106Z,-67
2023-10-29T21:21:44.223Z,-68
2023-10-29T21:22:44.187Z,-68
2023-10-29T21:23:44.187Z,-67
2023-10-29T21:24:44.204Z,-67
2023-10-29T21:25:44.231Z,-66
2023-10-29T21:26:44.217Z,-70
2023-10-29T21:27:44.233Z,-69
2023-10-29T21:28:44.299Z,-69
2023-10-29T21:29:44.261Z,-70
2023-10-29T21:30:44.305Z,-63
2023-10-29T21:31:44.186Z,-65
2023-10-29T21:32:44.430Z,-64
2023-10-29T21:33:44.257Z,-70
2023-10-29T21:34:44.186Z,-70
2023-10-29T21:37:32.032Z,-70
2023-10-29T21:38:32.010Z,-70
2023-10-29T21:39:32.032Z,-68
2023-10-29T21:40:32.010Z,-69
2023-10-29T21:41:32.007Z,-67
2023-10-29T21:42:32.032Z,-68
2023-10-29T21:43:32.006Z,-67
